JAL2419 RJOO-RJFK
Flight info
| Callsign | JAL2419 |
|---|---|
| Flight time | N/A |
| Altitude | 32000 |
| Route | TIGER MAIKO AWAJI Y232 KRE Y756 VIRUD Y757 SPICA |
| Aircraft | E190/M-SDFLOVE2GIRW/S |
Departure
| Time | 2026-04-28 12:06 |
|---|---|
| Airport | Osaka Itami International Airport (RJOO) |
Arrival
| Time | N/A |
|---|---|
| Airport | Kagoshima Airport (RJFK) |
| Time | Latitude | Longitude | Altitude | Speed | Heading |
|---|---|---|---|---|---|
| 2026-04-28 11:53 | 34.79212 | 135.43649 | 49 ft | 0 kts | 177° |
| 2026-04-28 11:59 | 34.79191 | 135.43641 | 49 ft | 6 kts | 207° |
| 2026-04-28 12:00 | 34.79152 | 135.43606 | 46 ft | 8 kts | 217° |
| 2026-04-28 12:00 | 34.79098 | 135.43589 | 49 ft | 9 kts | 172° |
| 2026-04-28 12:00 | 34.79044 | 135.43634 | 49 ft | 10 kts | 136° |
| 2026-04-28 12:00 | 34.78988 | 135.43701 | 49 ft | 12 kts | 135° |
| 2026-04-28 12:01 | 34.78924 | 135.43779 | 46 ft | 14 kts | 135° |
| 2026-04-28 12:01 | 34.78851 | 135.43868 | 46 ft | 16 kts | 135° |
| 2026-04-28 12:01 | 34.78771 | 135.43966 | 49 ft | 17 kts | 135° |
| 2026-04-28 12:01 | 34.78683 | 135.44073 | 49 ft | 19 kts | 135° |
| 2026-04-28 12:02 | 34.78589 | 135.44187 | 49 ft | 20 kts | 135° |
| 2026-04-28 12:02 | 34.78508 | 135.44285 | 47 ft | 15 kts | 135° |
| 2026-04-28 12:02 | 34.78410 | 135.44335 | 49 ft | 16 kts | 179° |
| 2026-04-28 12:02 | 34.78294 | 135.44334 | 49 ft | 17 kts | 180° |
| 2026-04-28 12:03 | 34.78170 | 135.44346 | 48 ft | 18 kts | 156° |
| 2026-04-28 12:03 | 34.78075 | 135.44457 | 47 ft | 20 kts | 134° |
| 2026-04-28 12:03 | 34.77975 | 135.44578 | 46 ft | 21 kts | 135° |
| 2026-04-28 12:03 | 34.77868 | 135.44706 | 47 ft | 22 kts | 135° |
| 2026-04-28 12:04 | 34.77759 | 135.44839 | 46 ft | 22 kts | 135° |
| 2026-04-28 12:04 | 34.77630 | 135.44947 | 49 ft | 23 kts | 155° |
| 2026-04-28 12:04 | 34.77519 | 135.45008 | 50 ft | 13 kts | 156° |
| 2026-04-28 12:04 | 34.77439 | 135.44993 | 50 ft | 9 kts | 227° |
| 2026-04-28 12:05 | 34.77438 | 135.44923 | 50 ft | 9 kts | 305° |
| 2026-04-28 12:05 | 34.77464 | 135.44891 | 47 ft | 1 kts | 316° |
| 2026-04-28 12:05 | 34.77473 | 135.44880 | 51 ft | 3 kts | 316° |
| 2026-04-28 12:05 | 34.77630 | 135.44689 | 49 ft | 68 kts | 315° |
| 2026-04-28 12:06 | 34.78138 | 135.44072 | 47 ft | 135 kts | 315° |
| 2026-04-28 12:06 | 34.78894 | 135.43172 | 401 ft | 161 kts | 315° |
| 2026-04-28 12:06 | 34.79717 | 135.42195 | 1000 ft | 181 kts | 305° |
| 2026-04-28 12:06 | 34.80083 | 135.40604 | 1187 ft | 214 kts | 260° |
| 2026-04-28 12:07 | 34.79329 | 135.39124 | 2161 ft | 210 kts | 220° |
| 2026-04-28 12:07 | 34.78036 | 135.38311 | 3064 ft | 216 kts | 200° |
| 2026-04-28 12:07 | 34.76516 | 135.38259 | 3932 ft | 222 kts | 177° |
| 2026-04-28 12:07 | 34.74998 | 135.38257 | 4700 ft | 215 kts | 201° |
| 2026-04-28 12:08 | 34.73594 | 135.37661 | 5481 ft | 214 kts | 203° |
| 2026-04-28 12:08 | 34.72138 | 135.37185 | 6251 ft | 220 kts | 198° |
| 2026-04-28 12:08 | 34.70625 | 135.36788 | 7036 ft | 224 kts | 197° |
| 2026-04-28 12:08 | 34.69077 | 135.36442 | 7889 ft | 226 kts | 196° |
| 2026-04-28 12:09 | 34.67504 | 135.36228 | 8747 ft | 231 kts | 187° |